Time;durP1;ratioP1;P1;durP2;ratioP2;P2;SDS_P1;SDS_P2;PMS_P1;PMS_P2;Temp;Humidity;BMP_temperature;BMP_pressure;BME280_temperature;BME280_humidity;BME280_pressure;Samples;Min_cycle;Max_cycle;Signal;HPM_P1;HPM_P2
2021/03/17 00:00:10;;;;;;;4.65;2.08;;;;;;;2.03;63.61;101033.38;5066220;28;20461;-66
2021/03/17 00:02:35;;;;;;;5.57;2.00;;;;;;;2.02;63.73;101034.16;5047865;28;20107;-66
2021/03/17 00:05:01;;;;;;;3.63;2.40;;;;;;;2.01;63.85;101035.88;5066018;28;20053;-66
2021/03/17 00:07:26;;;;;;;3.35;2.00;;;;;;;1.96;63.85;101037.38;5065638;28;20053;-65
2021/03/17 00:09:51;;;;;;;4.10;2.25;;;;;;;1.91;64.02;101039.78;5065833;28;20039;-66
2021/03/17 00:12:17;;;;;;;4.18;2.30;;;;;;;1.89;63.88;101041.38;5065731;28;20088;-65
2021/03/17 00:14:42;;;;;;;6.80;2.67;;;;;;;1.83;64.03;101038.59;5065833;28;20021;-66
2021/03/17 00:17:07;;;;;;;7.75;2.70;;;;;;;1.85;64.09;101042.94;5065599;28;20029;-66
2021/03/17 00:19:33;;;;;;;9.63;2.75;;;;;;;1.85;64.10;101042.94;5065858;28;20021;-65
2021/03/17 00:21:59;;;;;;;3.65;2.10;;;;;;;1.87;64.33;101043.00;5065131;28;20059;-65
2021/03/17 00:24:24;;;;;;;12.23;2.45;;;;;;;1.95;64.41;101049.31;5065469;28;20021;-66
2021/03/17 00:26:49;;;;;;;3.55;2.17;;;;;;;2.05;64.58;101049.63;5065475;28;20024;-66
2021/03/17 00:29:15;;;;;;;7.45;3.22;;;;;;;2.11;64.52;101057.53;5065657;28;20390;-66
2021/03/17 00:31:40;;;;;;;6.28;2.40;;;;;;;2.13;64.54;101047.34;5065325;28;20028;-66
2021/03/17 00:34:06;;;;;;;8.95;2.45;;;;;;;2.16;64.52;101056.03;5047516;28;20080;-66
2021/03/17 00:36:31;;;;;;;2.90;1.88;;;;;;;2.17;64.80;101055.22;5065203;28;20055;-66
2021/03/17 00:38:56;;;;;;;4.50;2.20;;;;;;;2.19;64.90;101057.84;5065256;28;20032;-66
2021/03/17 00:41:22;;;;;;;4.07;1.58;;;;;;;2.18;65.04;101054.41;5065211;28;20025;-66
2021/03/17 00:43:47;;;;;;;4.93;2.08;;;;;;;2.20;65.15;101059.59;5065282;28;20037;-65
2021/03/17 00:46:12;;;;;;;3.20;1.98;;;;;;;2.20;65.07;101065.59;5065229;28;20044;-65
2021/03/17 00:48:38;;;;;;;5.57;3.55;;;;;;;2.16;65.10;101060.28;5065217;28;20032;-65
2021/03/17 00:51:03;;;;;;;4.57;1.92;;;;;;;2.13;65.24;101058.50;5064754;28;20029;-65
2021/03/17 00:53:29;;;;;;;4.85;1.60;;;;;;;2.08;65.48;101057.44;5065059;28;20113;-65
2021/03/17 00:55:54;;;;;;;2.63;1.80;;;;;;;2.04;65.38;101064.16;5064788;28;20025;-65
2021/03/17 00:58:19;;;;;;;2.83;1.80;;;;;;;1.98;65.51;101059.66;5065044;28;20477;-66
2021/03/17 01:00:45;;;;;;;3.60;1.52;;;;;;;1.95;65.69;101061.25;5064885;28;20028;-65
2021/03/17 01:03:10;;;;;;;5.90;1.90;;;;;;;1.89;65.74;101056.75;5064968;28;20349;-65
2021/03/17 01:05:35;;;;;;;2.97;1.77;;;;;;;1.88;65.89;101057.59;5064419;28;20029;-66
2021/03/17 01:08:01;;;;;;;5.82;1.63;;;;;;;1.90;66.10;101063.63;5063795;28;20033;-65
2021/03/17 01:10:37;;;;;;;5.97;1.20;;;;;;;1.94;66.42;101064.59;5064577;28;20021;-65
2021/03/17 01:13:03;;;;;;;2.97;1.10;;;;;;;2.01;66.47;101061.47;5064688;28;20028;-66
2021/03/17 01:15:29;;;;;;;2.88;1.40;;;;;;;2.06;66.64;101074.47;5064452;28;20021;-65
2021/03/17 01:17:54;;;;;;;4.53;1.50;;;;;;;2.08;66.53;101071.13;5064583;28;20107;-65
2021/03/17 01:20:23;;;;;;;4.57;1.60;;;;;;;2.10;66.40;101072.06;5064276;28;20377;-65
2021/03/17 01:22:48;;;;;;;4.13;1.60;;;;;;;2.13;66.33;101071.28;5064371;28;20032;-65
2021/03/17 01:25:17;;;;;;;1.92;1.20;;;;;;;2.14;66.40;101074.75;5064414;28;20050;-65
2021/03/17 01:27:43;;;;;;;5.55;1.80;;;;;;;2.15;66.30;101079.91;5064204;28;20049;-65
2021/03/17 01:30:09;;;;;;;4.82;1.98;;;;;;;2.11;66.46;101080.59;5046425;28;20048;-65
2021/03/17 01:32:35;;;;;;;4.35;2.03;;;;;;;2.10;66.56;101087.44;5064352;28;20151;-65
2021/03/17 01:35:01;;;;;;;4.22;2.05;;;;;;;2.09;66.70;101085.66;5064129;28;20169;-64
2021/03/17 01:37:27;;;;;;;5.15;1.95;;;;;;;2.10;66.41;101086.56;5063911;28;20481;-64
2021/03/17 01:39:52;;;;;;;5.97;1.88;;;;;;;2.09;66.42;101088.22;5063838;28;20025;-65
2021/03/17 01:42:17;;;;;;;6.30;2.13;;;;;;;2.08;66.36;101095.84;5062920;28;20053;-65
2021/03/17 01:44:43;;;;;;;5.32;3.03;;;;;;;2.03;66.44;101094.84;5063600;28;20056;-65
2021/03/17 01:47:08;;;;;;;6.30;3.42;;;;;;;2.02;66.41;101090.50;5064100;28;20064;-64
2021/03/17 01:49:33;;;;;;;8.63;3.42;;;;;;;1.95;66.38;101092.84;5063860;28;20033;-64
2021/03/17 01:52:00;;;;;;;9.73;3.45;;;;;;;1.91;66.53;101093.56;5063399;28;20024;-65
2021/03/17 01:54:25;;;;;;;6.35;3.55;;;;;;;1.89;66.40;101092.59;5063845;28;20084;-65
2021/03/17 01:56:51;;;;;;;7.93;3.92;;;;;;;1.82;66.58;101088.94;5063737;28;20059;-64
2021/03/17 01:59:17;;;;;;;10.15;4.20;;;;;;;1.78;66.86;101088.75;5063582;28;20045;-65
2021/03/17 02:01:42;;;;;;;5.15;2.78;;;;;;;1.71;66.94;101096.19;5063477;28;20032;-64
2021/03/17 02:04:07;;;;;;;10.07;3.22;;;;;;;1.63;67.69;101092.44;5063660;28;20065;-64
2021/03/17 02:06:33;;;;;;;4.75;2.70;;;;;;;1.59;67.88;101082.91;5063192;28;20024;-64
2021/03/17 02:08:58;;;;;;;5.95;3.10;;;;;;;1.57;68.14;101092.22;5063582;28;20125;-64
2021/03/17 02:11:23;;;;;;;4.75;2.58;;;;;;;1.54;68.46;101087.84;5063280;28;20020;-65
2021/03/17 02:14:08;;;;;;;4.13;2.53;;;;;;;1.57;68.08;101087.97;5063442;28;20090;-64
2021/03/17 02:16:43;;;;;;;4.18;2.50;;;;;;;1.60;68.02;101092.34;5063339;28;20024;-65
2021/03/17 02:19:11;;;;;;;6.88;3.55;;;;;;;1.56;68.30;101101.59;5063268;28;20052;-65
2021/03/17 02:22:07;;;;;;;5.90;3.00;;;;;;;1.56;68.05;101106.72;5063032;28;20075;-64
2021/03/17 02:24:48;;;;;;;8.27;3.35;;;;;;;1.48;68.48;101111.53;5063482;28;20024;-65
2021/03/17 02:27:14;;;;;;;7.60;3.47;;;;;;;1.46;68.24;101112.25;5063266;28;20052;-67
2021/03/17 02:29:57;;;;;;;7.10;2.63;;;;;;;1.38;68.70;101111.97;5063445;28;20079;-65
2021/03/17 02:32:49;;;;;;;5.53;2.80;;;;;;;1.29;68.74;101109.91;5063455;28;20335;-65
2021/03/17 02:35:18;;;;;;;4.68;3.13;;;;;;;1.23;68.39;101107.94;5063486;28;20021;-65
2021/03/17 02:37:47;;;;;;;9.02;2.95;;;;;;;1.19;68.81;101116.31;5063096;28;20036;-65
2021/03/17 02:40:22;;;;;;;7.53;2.80;;;;;;;1.11;69.04;101113.44;5045709;28;20029;-64
2021/03/17 02:42:57;;;;;;;5.25;3.00;;;;;;;1.10;68.94;101121.06;5063029;28;20033;-64
2021/03/17 02:45:27;;;;;;;5.15;2.58;;;;;;;1.06;69.02;101114.94;5063281;28;20028;-67
2021/03/17 02:48:10;;;;;;;5.18;2.60;;;;;;;1.02;69.23;101123.28;5063213;28;20446;-65
2021/03/17 02:50:37;;;;;;;6.20;2.75;;;;;;;0.98;69.21;101112.06;5063236;28;20024;-65
2021/03/17 02:53:04;;;;;;;6.72;2.72;;;;;;;0.99;69.30;101125.72;5045082;28;20033;-65
2021/03/17 02:55:36;;;;;;;5.90;3.13;;;;;;;0.94;69.17;101114.41;5063199;28;20536;-65
2021/03/17 02:58:02;;;;;;;6.32;2.65;;;;;;;0.92;69.88;101123.69;5062942;28;20059;-65
2021/03/17 03:00:30;;;;;;;4.18;2.50;;;;;;;0.92;69.84;101116.91;5062976;28;20017;-65
2021/03/17 03:02:58;;;;;;;5.18;2.50;;;;;;;0.90;70.01;101123.63;5063094;28;20385;-65
2021/03/17 03:05:26;;;;;;;8.15;2.55;;;;;;;0.89;69.91;101127.00;5062852;28;20025;-66
2021/03/17 03:07:53;;;;;;;5.80;2.67;;;;;;;0.88;70.02;101120.13;5044795;28;20438;-65
2021/03/17 03:10:21;;;;;;;5.30;2.35;;;;;;;0.81;70.72;101124.13;5062907;28;20020;-66
2021/03/17 03:12:51;;;;;;;4.03;2.58;;;;;;;0.80;70.39;101124.91;5062930;28;20084;-65
2021/03/17 03:15:23;;;;;;;6.47;3.05;;;;;;;0.80;70.45;101126.63;5062889;28;20028;-65
2021/03/17 03:17:50;;;;;;;5.93;2.85;;;;;;;0.67;70.37;101113.28;5062952;28;20036;-65
2021/03/17 03:20:18;;;;;;;4.43;2.75;;;;;;;0.71;70.55;101134.72;5062988;28;20021;-65
2021/03/17 03:22:46;;;;;;;5.05;2.60;;;;;;;0.65;70.82;101137.91;5062848;28;20033;-65
2021/03/17 03:25:12;;;;;;;8.70;3.15;;;;;;;0.57;71.08;101134.13;5062822;28;20025;-64
2021/03/17 03:27:38;;;;;;;4.20;2.40;;;;;;;0.54;71.46;101145.09;5062639;28;20116;-64
2021/03/17 03:30:11;;;;;;;5.07;2.83;;;;;;;0.48;71.59;101145.69;5046009;28;20405;-65
2021/03/17 03:32:39;;;;;;;3.95;2.35;;;;;;;0.51;71.38;101149.19;5066559;28;20053;-65
2021/03/17 03:35:06;;;;;;;3.90;2.10;;;;;;;0.52;71.66;101145.81;5066563;28;20112;-65
2021/03/17 03:37:32;;;;;;;7.18;2.40;;;;;;;0.52;71.86;101141.59;5066128;28;20111;-64
2021/03/17 03:39:57;;;;;;;5.47;2.10;;;;;;;0.55;71.97;101146.84;5066611;28;20044;-64
2021/03/17 03:42:22;;;;;;;4.18;2.40;;;;;;;0.58;71.74;101151.19;5066354;28;20070;-64
2021/03/17 03:44:48;;;;;;;6.85;2.15;;;;;;;0.60;72.23;101144.50;5048050;28;20035;-64
2021/03/17 03:47:13;;;;;;;3.90;2.28;;;;;;;0.61;72.15;101144.56;5066302;28;20021;-65
2021/03/17 03:49:39;;;;;;;3.78;2.15;;;;;;;0.62;72.02;101142.88;5066233;28;20021;-64
2021/03/17 03:52:15;;;;;;;2.42;1.70;;;;;;;0.65;71.97;101142.13;5065941;28;20032;-65
2021/03/17 03:55:22;;;;;;;4.15;1.88;;;;;;;0.70;72.09;101140.66;5066367;28;20021;-66
2021/03/17 03:57:50;;;;;;;3.75;2.05;;;;;;;0.72;71.97;101142.47;5017293;28;20068;-65
2021/03/17 04:00:26;;;;;;;4.03;2.10;;;;;;;0.72;71.85;101145.03;5066096;28;20106;-66
2021/03/17 04:02:55;;;;;;;6.03;1.75;;;;;;;0.76;71.96;101142.59;5065963;28;20017;-66
2021/03/17 04:05:25;;;;;;;2.95;1.80;;;;;;;0.81;71.88;101143.69;5065980;28;20128;-65
2021/03/17 04:07:53;;;;;;;3.35;1.77;;;;;;;0.83;71.81;101147.19;5065619;28;20084;-66
2021/03/17 04:10:22;;;;;;;5.60;1.83;;;;;;;0.84;71.92;101144.72;5065970;28;20086;-65
2021/03/17 04:12:51;;;;;;;4.75;2.05;;;;;;;0.88;71.80;101147.41;5065815;28;20044;-66
2021/03/17 04:15:17;;;;;;;7.03;2.67;;;;;;;0.90;71.81;101158.53;5065896;28;20025;-65
2021/03/17 04:17:49;;;;;;;3.85;1.98;;;;;;;0.90;71.90;101149.19;5065859;28;20025;-65
2021/03/17 04:20:17;;;;;;;3.67;2.17;;;;;;;0.90;71.55;101158.53;5066047;28;20068;-66
2021/03/17 04:22:46;;;;;;;4.03;2.20;;;;;;;0.87;71.76;101156.72;5065448;28;20192;-65
2021/03/17 04:25:14;;;;;;;7.00;2.40;;;;;;;0.88;72.01;101153.34;5065641;28;20080;-65
2021/03/17 04:27:44;;;;;;;3.88;1.80;;;;;;;0.90;72.01;101154.31;5065540;28;20049;-65
2021/03/17 04:30:11;;;;;;;6.72;2.42;;;;;;;0.92;72.09;101168.03;5065713;28;20033;-65
2021/03/17 04:32:37;;;;;;;3.28;2.13;;;;;;;0.94;72.02;101166.41;5048037;28;20056;-65
2021/03/17 04:35:04;;;;;;;3.90;2.60;;;;;;;0.98;72.00;101173.41;5065568;28;20451;-65
2021/03/17 04:37:30;;;;;;;6.22;2.25;;;;;;;1.02;72.05;101163.31;5065273;28;20017;-65
2021/03/17 04:39:58;;;;;;;6.72;2.42;;;;;;;0.99;72.14;101166.63;5065361;28;20111;-68
2021/03/17 04:42:24;;;;;;;9.25;2.63;;;;;;;1.04;72.16;101169.38;5065328;28;20033;-65
2021/03/17 04:44:51;;;;;;;7.70;2.25;;;;;;;1.06;71.96;101180.53;5047083;28;20024;-65
2021/03/17 04:47:17;;;;;;;9.40;2.42;;;;;;;1.09;71.83;101173.00;5065097;28;20025;-65
2021/03/17 04:49:44;;;;;;;7.13;2.17;;;;;;;1.09;71.96;101181.56;5065197;28;20017;-65
2021/03/17 04:52:13;;;;;;;6.57;2.70;;;;;;;1.12;71.82;101180.81;5064756;28;20420;-66
2021/03/17 04:54:38;;;;;;;5.82;2.50;;;;;;;1.16;71.80;101181.81;5065087;28;20009;-65
2021/03/17 04:57:05;;;;;;;4.65;2.83;;;;;;;1.17;71.79;101186.09;5064985;28;20040;-66
2021/03/17 04:59:35;;;;;;;5.18;2.17;;;;;;;1.20;71.58;101184.56;5065173;28;20021;-65
2021/03/17 05:02:02;;;;;;;6.35;2.25;;;;;;;1.24;71.62;101190.69;5064771;28;20036;-66
2021/03/17 05:04:27;;;;;;;3.95;2.25;;;;;;;1.29;71.37;101188.34;5064915;28;20032;-66
2021/03/17 05:06:53;;;;;;;4.25;1.77;;;;;;;1.30;71.26;101184.94;5046595;28;20033;-66
2021/03/17 05:09:19;;;;;;;3.42;1.70;;;;;;;1.31;71.01;101187.56;5064930;28;20080;-66
2021/03/17 05:11:46;;;;;;;5.00;1.77;;;;;;;1.27;71.23;101195.06;5064650;28;20096;-65
2021/03/17 05:14:12;;;;;;;5.22;2.08;;;;;;;1.20;71.37;101192.25;5064618;28;20021;-66
2021/03/17 05:16:39;;;;;;;4.53;2.08;;;;;;;1.20;71.24;101191.34;5064727;28;20024;-66
2021/03/17 05:19:05;;;;;;;3.63;2.22;;;;;;;1.14;71.43;101189.41;5064519;28;20028;-66
2021/03/17 05:21:32;;;;;;;3.42;1.50;;;;;;;1.09;71.28;101190.91;5064311;28;20127;-66
2021/03/17 05:23:59;;;;;;;4.75;1.95;;;;;;;1.08;71.44;101205.38;5064296;28;20025;-73
2021/03/17 05:26:25;;;;;;;3.65;2.00;;;;;;;1.01;71.37;101194.84;5064472;28;20063;-68
2021/03/17 05:28:52;;;;;;;5.00;1.95;;;;;;;1.02;71.28;101197.44;5064332;28;20163;-66
2021/03/17 05:31:19;;;;;;;6.43;1.92;;;;;;;1.00;71.28;101201.63;5046028;28;20020;-69
2021/03/17 05:33:44;;;;;;;3.40;2.10;;;;;;;0.99;71.33;101198.19;5064437;28;20052;-74
2021/03/17 05:36:10;;;;;;;3.63;2.10;;;;;;;0.97;71.18;101207.47;5064367;28;20028;-70
2021/03/17 05:38:35;;;;;;;2.65;1.50;;;;;;;1.05;71.24;101220.59;5045952;28;20234;-65
2021/03/17 05:41:01;;;;;;;3.88;1.88;;;;;;;1.11;71.55;101227.66;5062959;28;20291;-66
2021/03/17 05:43:27;;;;;;;5.05;2.00;;;;;;;1.17;71.27;101224.47;5063184;28;20122;-67
2021/03/17 05:45:52;;;;;;;4.50;2.10;;;;;;;1.25;71.23;101225.69;5063647;28;20426;-67
2021/03/17 05:48:19;;;;;;;7.05;2.13;;;;;;;1.33;71.40;101226.00;5063368;28;20021;-66
2021/03/17 05:50:44;;;;;;;9.45;1.88;;;;;;;1.43;71.18;101229.84;5062937;28;20325;-67
2021/03/17 05:53:10;;;;;;;3.35;1.90;;;;;;;1.64;71.74;101232.44;5063375;28;20036;-67
2021/03/17 05:55:37;;;;;;;5.43;1.60;;;;;;;2.07;72.31;101237.56;5064077;28;20453;-67
2021/03/17 05:58:03;;;;;;;2.28;1.23;;;;;;;2.45;71.91;101238.19;5063959;28;20493;-66
2021/03/17 06:00:29;;;;;;;3.17;1.73;;;;;;;2.66;71.03;101239.84;5063933;28;20036;-65
2021/03/17 06:02:55;;;;;;;6.05;1.65;;;;;;;2.67;69.92;101241.56;5063745;28;20032;-67
2021/03/17 06:05:22;;;;;;;6.55;1.90;;;;;;;2.50;69.06;101243.50;5045936;28;20052;-66
2021/03/17 06:08:00;;;;;;;6.03;1.70;;;;;;;2.32;68.89;101247.09;5063242;28;20108;-65
2021/03/17 06:10:28;;;;;;;3.03;1.67;;;;;;;2.13;68.61;101242.94;5063660;28;20071;-65
2021/03/17 06:13:09;;;;;;;3.75;2.00;;;;;;;2.02;68.71;101249.31;5063548;28;20032;-66
2021/03/17 06:15:36;;;;;;;2.92;1.48;;;;;;;1.90;67.96;101254.81;5063404;28;20089;-66
2021/03/17 06:18:24;;;;;;;3.88;1.55;;;;;;;1.72;68.10;101256.69;5063148;28;20025;-66
2021/03/17 06:20:50;;;;;;;3.28;1.35;;;;;;;1.63;68.16;101265.66;5063210;28;20040;-65
2021/03/17 06:23:15;;;;;;;3.95;1.50;;;;;;;1.53;68.11;101266.94;5063386;28;20088;-65
2021/03/17 06:25:44;;;;;;;3.97;1.40;;;;;;;1.45;68.21;101262.34;5069949;28;20021;-64
2021/03/17 06:28:13;;;;;;;4.88;1.58;;;;;;;1.51;68.57;101273.69;5083431;28;20044;-66
2021/03/17 06:30:39;;;;;;;6.13;2.00;;;;;;;1.55;68.08;101267.91;5083376;28;20028;-65
2021/03/17 06:33:04;;;;;;;5.07;1.58;;;;;;;1.51;67.91;101273.69;5083294;28;20440;-66
2021/03/17 06:35:30;;;;;;;4.85;1.42;;;;;;;1.34;67.76;101263.59;5083602;28;20032;-66
2021/03/17 06:37:55;;;;;;;5.28;1.85;;;;;;;1.33;67.99;101279.75;5083104;28;20025;-66
2021/03/17 06:40:35;;;;;;;3.10;1.75;;;;;;;1.37;68.20;101284.22;5083767;28;20017;-65
2021/03/17 06:43:12;;;;;;;11.10;1.77;;;;;;;1.37;68.22;101294.44;5083498;28;20023;-65
2021/03/17 06:45:41;;;;;;;6.22;1.80;;;;;;;1.42;68.19;101284.41;5083579;28;20424;-65
2021/03/17 06:48:24;;;;;;;3.00;1.23;;;;;;;1.48;68.15;101293.22;5083541;28;20024;-66
2021/03/17 06:51:05;;;;;;;5.90;1.70;;;;;;;1.52;67.84;101291.66;5083633;28;20103;-66
2021/03/17 06:53:40;;;;;;;6.15;2.15;;;;;;;1.52;67.99;101291.66;5083394;28;20074;-65
2021/03/17 06:56:18;;;;;;;5.00;1.20;;;;;;;1.81;68.58;101298.84;5083460;28;20028;-65
2021/03/17 06:58:55;;;;;;;3.30;1.63;;;;;;;2.15;67.13;101297.69;5083674;28;20465;-65
2021/03/17 07:01:37;;;;;;;5.57;1.55;;;;;;;2.31;67.46;101293.16;5083453;28;20025;-64
2021/03/17 07:04:05;;;;;;;5.28;1.50;;;;;;;2.46;66.84;101298.91;5083428;28;20024;-65
2021/03/17 07:06:31;;;;;;;7.90;1.92;;;;;;;2.65;66.79;101289.34;5086873;28;20059;-64
2021/03/17 07:08:57;;;;;;;8.60;1.55;;;;;;;3.00;67.06;101304.34;5087158;28;20029;-65
2021/03/17 07:11:30;;;;;;;2.85;1.48;;;;;;;3.65;66.79;101302.34;5087226;28;20031;-65
2021/03/17 07:14:01;;;;;;;1.30;0.90;;;;;;;4.35;64.64;101309.78;5087286;28;20050;-64
2021/03/17 07:16:46;;;;;;;4.40;1.65;;;;;;;4.38;62.98;101304.72;5087306;28;20024;-64
2021/03/17 07:19:29;;;;;;;4.93;1.50;;;;;;;4.36;63.60;101315.81;5087131;28;20052;-65
2021/03/17 07:22:10;;;;;;;2.80;1.10;;;;;;;4.19;60.67;101305.84;5086680;28;20027;-65
2021/03/17 07:24:37;;;;;;;3.80;1.10;;;;;;;3.94;60.75;101323.91;5087018;28;20021;-65
2021/03/17 07:27:13;;;;;;;3.08;1.08;;;;;;;3.65;60.64;101320.31;5086669;28;20075;-65
2021/03/17 07:29:38;;;;;;;0.85;0.75;;;;;;;3.51;60.56;101325.84;5086983;28;20028;-65
2021/03/17 07:32:04;;;;;;;6.97;1.50;;;;;;;3.41;60.82;101324.66;5086734;28;20039;-64
2021/03/17 07:34:30;;;;;;;8.43;1.40;;;;;;;3.50;61.65;101338.63;5086853;28;20038;-66
2021/03/17 07:37:01;;;;;;;5.53;1.15;;;;;;;3.64;61.26;101342.59;5086397;28;20030;-66
2021/03/17 07:39:38;;;;;;;1.40;1.13;;;;;;;3.67;59.79;101332.41;5086670;28;20049;-66
2021/03/17 07:42:07;;;;;;;1.77;1.42;;;;;;;3.59;59.53;101341.53;5086539;28;20036;-66
2021/03/17 07:44:34;;;;;;;2.53;0.98;;;;;;;3.50;60.13;101338.63;5086675;28;20170;-66
2021/03/17 07:47:02;;;;;;;3.78;1.10;;;;;;;3.59;59.59;101346.66;5086755;28;20020;-65
2021/03/17 07:49:28;;;;;;;1.60;0.93;;;;;;;4.03;58.89;101345.56;5086478;28;20087;-66
2021/03/17 07:52:02;;;;;;;2.97;1.00;;;;;;;4.02;57.83;101343.84;5085996;28;20485;-65
2021/03/17 07:54:31;;;;;;;1.95;1.00;;;;;;;4.07;58.39;101357.72;5086712;28;20084;-66
2021/03/17 07:56:58;;;;;;;4.43;1.10;;;;;;;4.08;57.26;101354.31;5086376;28;20463;-67
2021/03/17 07:59:25;;;;;;;3.40;1.20;;;;;;;4.12;58.19;101355.31;5086449;28;20025;-67
2021/03/17 08:01:58;;;;;;;3.25;2.13;;;;;;;4.67;59.12;101361.38;5086330;28;20107;-67
2021/03/17 08:04:29;;;;;;;1.45;0.90;;;;;;;5.00;56.45;101346.03;5086509;28;20020;-67
2021/03/17 08:06:56;;;;;;;1.48;1.00;;;;;;;4.75;56.36;101348.72;5086059;28;20116;-66
2021/03/17 08:09:21;;;;;;;3.17;0.90;;;;;;;4.79;55.71;101360.84;5086292;28;20043;-66
2021/03/17 08:11:48;;;;;;;2.33;1.52;;;;;;;4.75;56.51;101356.44;5068171;28;20016;-66
2021/03/17 08:14:15;;;;;;;3.90;1.00;;;;;;;4.94;55.84;101344.16;5086045;28;20032;-67
2021/03/17 08:16:41;;;;;;;1.15;0.80;;;;;;;5.32;55.09;101357.28;5085746;28;20047;-66
2021/03/17 08:19:27;;;;;;;4.00;1.10;;;;;;;5.51;53.89;101367.22;5085938;28;20490;-67
2021/03/17 08:22:00;;;;;;;2.15;0.80;;;;;;;5.64;54.43;101369.31;5085592;28;20391;-66
2021/03/17 08:24:38;;;;;;;2.03;1.40;;;;;;;5.78;53.04;101373.97;5085890;28;20098;-67
2021/03/17 08:27:07;;;;;;;4.32;0.75;;;;;;;5.95;53.15;101372.72;5085545;28;20041;-67
2021/03/17 08:29:36;;;;;;;1.77;1.10;;;;;;;6.11;51.69;101375.72;5085941;28;20424;-67
2021/03/17 08:32:02;;;;;;;4.97;1.08;;;;;;;6.12;51.93;101369.72;5085570;28;20119;-66
2021/03/17 08:34:29;;;;;;;1.85;0.88;;;;;;;6.34;50.30;101369.41;5085837;28;20059;-67
2021/03/17 08:36:56;;;;;;;2.70;0.68;;;;;;;6.41;51.06;101379.03;5085520;28;20044;-66
2021/03/17 08:39:34;;;;;;;6.47;1.10;;;;;;;6.40;50.10;101373.03;5085816;28;20021;-67
2021/03/17 08:42:03;;;;;;;3.92;0.98;;;;;;;6.38;50.66;101360.91;5085493;28;20024;-65
2021/03/17 08:44:39;;;;;;;4.18;1.10;;;;;;;6.55;49.01;101363.91;5085428;28;20051;-67
2021/03/17 08:47:15;;;;;;;3.63;0.88;;;;;;;6.60;49.60;101372.59;5085583;28;20056;-66
2021/03/17 08:49:40;;;;;;;5.07;1.52;;;;;;;6.58;48.27;101366.56;5084927;28;20029;-66
2021/03/17 08:52:09;;;;;;;1.88;0.68;;;;;;;6.73;48.42;101373.78;5084236;28;20035;-67
2021/03/17 08:54:34;;;;;;;1.65;0.73;;;;;;;6.71;48.48;101378.00;5085118;28;20036;-67
2021/03/17 08:57:01;;;;;;;3.47;1.30;;;;;;;6.76;48.94;101367.78;5085185;28;20020;-65
2021/03/17 09:00:01;;;;;;;4.97;1.30;;;;;;;7.31;49.30;101380.19;5084485;28;20035;-65
2021/03/17 09:02:26;;;;;;;3.03;0.85;;;;;;;7.58;47.47;101373.84;5084268;28;20067;-66
2021/03/17 09:04:54;;;;;;;4.60;0.90;;;;;;;7.88;46.08;101384.72;5083672;28;20032;-66
2021/03/17 09:07:22;;;;;;;1.75;0.95;;;;;;;7.67;44.10;101383.47;5084318;28;20025;-65
2021/03/17 09:09:49;;;;;;;2.63;1.00;;;;;;;7.55;43.79;101385.00;5084974;28;20050;-67
2021/03/17 09:12:17;;;;;;;3.85;0.90;;;;;;;7.43;43.71;101387.31;5084420;28;20456;-66
2021/03/17 09:14:43;;;;;;;2.15;0.93;;;;;;;7.54;43.88;101382.38;5084926;28;20482;-67
2021/03/17 09:17:11;;;;;;;3.53;0.93;;;;;;;7.78;42.73;101374.22;5066859;28;20043;-67
2021/03/17 09:19:53;;;;;;;4.13;1.23;;;;;;;8.06;43.40;101379.91;5084959;28;20052;-68
2021/03/17 09:22:31;;;;;;;4.22;1.30;;;;;;;8.54;42.14;101391.88;5084442;28;20029;-67
2021/03/17 09:24:56;;;;;;;3.45;1.08;;;;;;;8.25;38.32;101393.16;5084563;28;20029;-69
2021/03/17 09:27:21;;;;;;;4.18;0.70;;;;;;;7.77;38.42;101369.91;5083678;28;20053;-67
2021/03/17 09:29:49;;;;;;;3.70;0.73;;;;;;;7.55;39.38;101376.38;5084644;28;20039;-67
2021/03/17 09:32:14;;;;;;;3.38;0.95;;;;;;;7.66;38.76;101387.78;5084353;28;20024;-66
2021/03/17 09:34:40;;;;;;;2.63;0.60;;;;;;;7.67;37.94;101383.47;5084557;28;20027;-66
2021/03/17 09:37:11;;;;;;;3.35;0.65;;;;;;;7.84;38.96;101378.66;5084086;28;20036;-66
2021/03/17 09:39:45;;;;;;;2.22;1.23;;;;;;;8.17;38.07;101384.38;5083966;28;20031;-66
2021/03/17 09:42:15;;;;;;;9.85;2.05;;;;;;;8.33;36.36;101376.88;5083580;28;20020;-66
2021/03/17 09:44:41;;;;;;;1.75;0.77;;;;;;;8.21;35.76;101375.81;5083891;28;20057;-65
2021/03/17 09:47:06;;;;;;;1.30;0.70;;;;;;;8.11;36.15;101382.56;5084061;28;20025;-65
2021/03/17 09:49:34;;;;;;;13.95;2.75;;;;;;;8.26;36.77;101373.34;5066094;28;20021;-65
2021/03/17 09:52:03;;;;;;;6.05;1.00;;;;;;;8.62;35.59;101373.91;5083834;28;20027;-64
2021/03/17 09:54:30;;;;;;;2.05;0.73;;;;;;;8.90;35.46;101376.91;5084070;28;20020;-66
2021/03/17 09:57:00;;;;;;;0.90;0.60;;;;;;;9.10;35.45;101389.28;5083973;28;20024;-65
2021/03/17 09:59:31;;;;;;;1.05;0.60;;;;;;;9.10;32.88;101374.63;5083905;28;20024;-66
2021/03/17 10:02:12;;;;;;;2.25;0.70;;;;;;;8.98;33.36;101390.00;5083759;28;20025;-65
2021/03/17 10:04:42;;;;;;;1.42;0.70;;;;;;;8.80;32.72;101387.13;5083908;28;20032;-66
2021/03/17 10:07:12;;;;;;;5.60;0.57;;;;;;;8.63;31.03;101392.06;5083496;28;20039;-66
2021/03/17 10:09:38;;;;;;;0.98;0.60;;;;;;;8.54;31.24;101390.22;5065870;28;20036;-66
2021/03/17 10:12:11;;;;;;;2.15;0.60;;;;;;;8.86;31.44;101395.84;5083868;28;20024;-67
2021/03/17 10:14:39;;;;;;;1.33;0.60;;;;;;;9.30;29.47;101397.31;5083672;28;20024;-67
2021/03/17 10:17:07;;;;;;;2.55;0.70;;;;;;;9.53;29.27;101397.59;5083503;28;20457;-66
2021/03/17 10:19:34;;;;;;;2.85;0.70;;;;;;;9.68;28.48;101398.63;5065070;28;20089;-65
2021/03/17 10:22:00;;;;;;;1.23;0.50;;;;;;;9.81;28.08;101397.03;5083213;28;20025;-65
2021/03/17 10:24:38;;;;;;;0.82;0.50;;;;;;;9.84;27.99;101389.28;5083635;28;20025;-66
2021/03/17 10:27:15;;;;;;;0.47;0.40;;;;;;;10.10;27.67;101400.78;5083534;28;20067;-67
2021/03/17 10:29:42;;;;;;;0.90;0.50;;;;;;;10.12;26.59;101419.84;5083614;28;20032;-68
2021/03/17 10:32:09;;;;;;;1.40;0.40;;;;;;;10.12;26.91;101397.34;5083569;28;20016;-66
2021/03/17 10:34:36;;;;;;;0.43;0.43;;;;;;;10.18;27.15;101414.69;5083392;28;20039;-66
2021/03/17 10:37:02;;;;;;;2.55;0.60;;;;;;;10.16;27.18;101406.91;5083021;28;20029;-67
2021/03/17 10:39:35;;;;;;;0.93;0.50;;;;;;;10.27;26.50;101390.56;5083589;28;20018;-66
2021/03/17 10:42:02;;;;;;;1.58;0.60;;;;;;;10.63;26.90;101411.66;5083340;28;20016;-65
2021/03/17 10:44:31;;;;;;;1.02;0.60;;;;;;;10.73;26.45;101397.00;5083515;28;20031;-66
2021/03/17 10:47:02;;;;;;;3.13;0.65;;;;;;;10.80;26.73;101400.53;5083335;28;20032;-67
2021/03/17 10:49:29;;;;;;;4.03;0.70;;;;;;;11.08;27.59;101404.16;5083420;28;20035;-66
2021/03/17 10:51:56;;;;;;;1.35;0.50;;;;;;;11.63;27.68;101397.44;5082897;28;20032;-64
2021/03/17 10:54:38;;;;;;;2.50;0.60;;;;;;;12.08;27.53;101404.50;5083123;28;20032;-65
2021/03/17 10:57:04;;;;;;;1.45;0.70;;;;;;;12.57;25.74;101405.38;5083271;28;20021;-66
2021/03/17 10:59:33;;;;;;;1.65;0.85;;;;;;;12.69;26.80;101401.03;5083364;28;20064;-66
2021/03/17 11:02:30;;;;;;;2.08;0.52;;;;;;;13.31;26.36;101408.72;5083220;28;20099;-66
2021/03/17 11:05:29;;;;;;;1.85;0.50;;;;;;;13.16;25.46;101420.06;5083440;28;20107;-67
2021/03/17 11:08:05;;;;;;;2.38;0.65;;;;;;;12.74;26.48;101413.22;5083163;28;20021;-66
2021/03/17 11:10:35;;;;;;;1.45;0.95;;;;;;;12.95;26.24;101426.19;5083348;28;20024;-67
2021/03/17 11:13:23;;;;;;;2.35;0.68;;;;;;;13.32;27.11;101428.69;5083002;28;20024;-67
2021/03/17 11:15:59;;;;;;;1.00;0.60;;;;;;;14.08;26.30;101414.44;5083382;28;20017;-68
2021/03/17 11:18:34;;;;;;;1.33;0.50;;;;;;;14.22;25.09;101422.16;5083352;28;20033;-67
2021/03/17 11:21:08;;;;;;;2.22;0.65;;;;;;;14.46;25.07;101424.59;5083378;28;20244;-67
2021/03/17 11:23:39;;;;;;;2.47;0.80;;;;;;;14.63;25.49;101437.53;5064978;28;20028;-67
2021/03/17 11:26:07;;;;;;;1.63;0.70;;;;;;;14.68;24.89;101427.03;5083105;28;20021;-67
2021/03/17 11:28:38;;;;;;;1.30;0.60;;;;;;;14.75;24.46;101426.09;5064725;28;20040;-67
2021/03/17 11:31:09;;;;;;;0.73;0.50;;;;;;;14.73;24.66;101422.59;5083119;28;20093;-67
2021/03/17 11:33:35;;;;;;;4.20;1.37;;;;;;;14.87;23.37;101418.16;5083211;28;20032;-67
2021/03/17 11:36:02;;;;;;;1.73;0.50;;;;;;;14.11;24.11;101430.09;5083089;28;20027;-66
2021/03/17 11:38:28;;;;;;;4.05;0.60;;;;;;;13.15;25.08;101423.53;5082676;28;20382;-66
2021/03/17 11:40:55;;;;;;;1.38;0.70;;;;;;;12.26;26.17;101434.91;5082989;28;20024;-66